sensor_id;sensor_type;location;lat;lon;timestamp;pressure;altitude;pressure_sealevel;temperature;humidity
10518;BME280;5307;42.548;22.968;2022-12-18T00:00:09;94523.00;;;6.65;100.00
10518;BME280;5307;42.548;22.968;2022-12-18T00:02:36;94530.28;;;6.72;100.00
10518;BME280;5307;42.548;22.968;2022-12-18T00:05:03;94537.03;;;6.57;100.00
10518;BME280;5307;42.548;22.968;2022-12-18T00:07:30;94540.84;;;6.63;100.00
10518;BME280;5307;42.548;22.968;2022-12-18T00:09:57;94534.25;;;6.64;100.00
10518;BME280;5307;42.548;22.968;2022-12-18T00:12:24;94548.75;;;6.46;100.00
10518;BME280;5307;42.548;22.968;2022-12-18T00:14:50;94541.16;;;6.34;100.00
10518;BME280;5307;42.548;22.968;2022-12-18T00:17:18;94547.16;;;6.52;100.00
10518;BME280;5307;42.548;22.968;2022-12-18T00:19:45;94550.06;;;6.35;100.00
10518;BME280;5307;42.548;22.968;2022-12-18T00:22:12;94549.63;;;6.40;100.00
10518;BME280;5307;42.548;22.968;2022-12-18T00:24:38;94555.50;;;6.31;100.00
10518;BME280;5307;42.548;22.968;2022-12-18T00:27:05;94560.94;;;6.31;100.00
10518;BME280;5307;42.548;22.968;2022-12-18T00:29:32;94570.56;;;6.39;100.00
10518;BME280;5307;42.548;22.968;2022-12-18T00:31:59;94567.97;;;6.25;100.00
10518;BME280;5307;42.548;22.968;2022-12-18T00:34:27;94570.22;;;6.34;100.00
10518;BME280;5307;42.548;22.968;2022-12-18T00:36:54;94560.25;;;6.23;100.00
10518;BME280;5307;42.548;22.968;2022-12-18T00:39:21;94565.72;;;6.20;100.00
10518;BME280;5307;42.548;22.968;2022-12-18T00:41:47;94572.31;;;6.15;100.00
10518;BME280;5307;42.548;22.968;2022-12-18T00:44:32;94567.25;;;6.21;100.00
10518;BME280;5307;42.548;22.968;2022-12-18T00:46:58;94563.22;;;6.36;100.00
10518;BME280;5307;42.548;22.968;2022-12-18T00:49:26;94572.66;;;6.21;100.00
10518;BME280;5307;42.548;22.968;2022-12-18T00:51:53;94577.28;;;6.24;100.00
10518;BME280;5307;42.548;22.968;2022-12-18T00:54:20;94587.38;;;6.23;100.00
10518;BME280;5307;42.548;22.968;2022-12-18T00:56:47;94573.34;;;6.29;100.00
10518;BME280;5307;42.548;22.968;2022-12-18T00:59:13;94572.72;;;6.14;100.00
10518;BME280;5307;42.548;22.968;2022-12-18T01:01:40;94578.22;;;6.07;100.00
10518;BME280;5307;42.548;22.968;2022-12-18T01:04:07;94574.31;;;6.08;100.00
10518;BME280;5307;42.548;22.968;2022-12-18T01:06:36;94575.47;;;6.10;100.00
10518;BME280;5307;42.548;22.968;2022-12-18T01:09:03;94578.47;;;6.23;100.00
10518;BME280;5307;42.548;22.968;2022-12-18T01:11:30;94571.19;;;6.13;100.00
10518;BME280;5307;42.548;22.968;2022-12-18T01:13:57;94575.97;;;5.94;100.00
10518;BME280;5307;42.548;22.968;2022-12-18T01:16:25;94576.28;;;6.07;100.00
10518;BME280;5307;42.548;22.968;2022-12-18T01:18:52;94578.69;;;5.94;100.00
10518;BME280;5307;42.548;22.968;2022-12-18T01:21:21;94581.25;;;6.12;100.00
10518;BME280;5307;42.548;22.968;2022-12-18T01:23:52;94583.63;;;6.07;100.00
10518;BME280;5307;42.548;22.968;2022-12-18T01:26:19;94587.16;;;6.00;100.00
10518;BME280;5307;42.548;22.968;2022-12-18T01:28:47;94589.44;;;6.05;100.00
10518;BME280;5307;42.548;22.968;2022-12-18T01:31:16;94590.59;;;6.04;100.00
10518;BME280;5307;42.548;22.968;2022-12-18T01:33:43;94586.78;;;5.98;100.00
10518;BME280;5307;42.548;22.968;2022-12-18T01:36:19;94584.81;;;6.02;100.00
10518;BME280;5307;42.548;22.968;2022-12-18T01:38:47;94589.13;;;5.96;100.00
10518;BME280;5307;42.548;22.968;2022-12-18T01:41:17;94597.66;;;5.94;100.00
10518;BME280;5307;42.548;22.968;2022-12-18T01:43:48;94592.66;;;5.86;100.00
10518;BME280;5307;42.548;22.968;2022-12-18T01:46:17;94600.78;;;5.86;100.00
10518;BME280;5307;42.548;22.968;2022-12-18T01:48:46;94606.13;;;6.00;100.00
10518;BME280;5307;42.548;22.968;2022-12-18T01:51:14;94604.63;;;5.95;100.00
10518;BME280;5307;42.548;22.968;2022-12-18T01:53:43;94605.31;;;6.07;100.00
10518;BME280;5307;42.548;22.968;2022-12-18T01:56:15;94603.06;;;5.98;100.00
10518;BME280;5307;42.548;22.968;2022-12-18T01:58:48;94613.38;;;6.14;100.00
10518;BME280;5307;42.548;22.968;2022-12-18T02:01:17;94592.31;;;5.80;100.00
10518;BME280;5307;42.548;22.968;2022-12-18T02:03:44;94610.78;;;6.00;100.00
10518;BME280;5307;42.548;22.968;2022-12-18T02:06:15;94600.69;;;6.04;100.00
10518;BME280;5307;42.548;22.968;2022-12-18T02:08:50;94603.44;;;6.00;100.00
10518;BME280;5307;42.548;22.968;2022-12-18T02:11:30;94603.78;;;6.06;100.00
10518;BME280;5307;42.548;22.968;2022-12-18T02:14:04;94602.09;;;6.19;100.00
10518;BME280;5307;42.548;22.968;2022-12-18T02:16:38;94597.09;;;6.17;100.00
10518;BME280;5307;42.548;22.968;2022-12-18T02:19:17;94601.44;;;6.04;100.00
10518;BME280;5307;42.548;22.968;2022-12-18T02:21:54;94601.44;;;6.08;100.00
10518;BME280;5307;42.548;22.968;2022-12-18T02:24:29;94614.63;;;6.06;100.00
10518;BME280;5307;42.548;22.968;2022-12-18T02:27:04;94606.88;;;6.08;100.00
10518;BME280;5307;42.548;22.968;2022-12-18T02:29:35;94614.72;;;5.95;100.00
10518;BME280;5307;42.548;22.968;2022-12-18T02:32:07;94613.94;;;5.87;100.00
10518;BME280;5307;42.548;22.968;2022-12-18T02:34:38;94616.31;;;5.82;100.00
10518;BME280;5307;42.548;22.968;2022-12-18T02:37:09;94629.47;;;5.83;100.00
10518;BME280;5307;42.548;22.968;2022-12-18T02:39:40;94625.31;;;5.68;100.00
10518;BME280;5307;42.548;22.968;2022-12-18T02:42:10;94626.78;;;5.76;100.00
10518;BME280;5307;42.548;22.968;2022-12-18T02:44:42;94636.44;;;5.84;100.00
10518;BME280;5307;42.548;22.968;2022-12-18T02:47:10;94635.78;;;5.66;100.00
10518;BME280;5307;42.548;22.968;2022-12-18T02:49:48;94642.69;;;5.78;100.00
10518;BME280;5307;42.548;22.968;2022-12-18T02:52:24;94642.78;;;5.56;100.00
10518;BME280;5307;42.548;22.968;2022-12-18T02:54:59;94635.84;;;5.52;100.00
10518;BME280;5307;42.548;22.968;2022-12-18T02:57:38;94625.72;;;5.63;100.00
10518;BME280;5307;42.548;22.968;2022-12-18T03:00:10;94638.13;;;5.64;100.00
10518;BME280;5307;42.548;22.968;2022-12-18T03:02:42;94651.34;;;5.48;100.00
10518;BME280;5307;42.548;22.968;2022-12-18T03:05:15;94651.75;;;5.43;100.00
10518;BME280;5307;42.548;22.968;2022-12-18T03:07:49;94659.50;;;5.41;100.00
10518;BME280;5307;42.548;22.968;2022-12-18T03:10:20;94657.44;;;5.66;100.00
10518;BME280;5307;42.548;22.968;2022-12-18T03:12:54;94654.38;;;5.64;100.00
10518;BME280;5307;42.548;22.968;2022-12-18T03:15:25;94657.47;;;5.59;100.00
10518;BME280;5307;42.548;22.968;2022-12-18T03:17:59;94657.47;;;5.59;100.00
10518;BME280;5307;42.548;22.968;2022-12-18T03:20:29;94657.88;;;5.57;100.00
10518;BME280;5307;42.548;22.968;2022-12-18T03:22:59;94654.03;;;5.48;100.00
10518;BME280;5307;42.548;22.968;2022-12-18T03:25:30;94665.97;;;5.61;100.00
10518;BME280;5307;42.548;22.968;2022-12-18T03:28:00;94648.94;;;5.60;100.00
10518;BME280;5307;42.548;22.968;2022-12-18T03:30:32;94650.16;;;5.52;100.00
10518;BME280;5307;42.548;22.968;2022-12-18T03:33:05;94668.28;;;5.62;100.00
10518;BME280;5307;42.548;22.968;2022-12-18T03:35:38;94671.50;;;5.40;100.00
10518;BME280;5307;42.548;22.968;2022-12-18T03:38:06;94674.19;;;5.50;100.00
10518;BME280;5307;42.548;22.968;2022-12-18T03:40:39;94687.69;;;5.54;100.00
10518;BME280;5307;42.548;22.968;2022-12-18T03:43:17;94682.59;;;5.63;100.00
10518;BME280;5307;42.548;22.968;2022-12-18T03:45:50;94699.34;;;5.44;100.00
10518;BME280;5307;42.548;22.968;2022-12-18T03:48:20;94695.91;;;5.36;100.00
10518;BME280;5307;42.548;22.968;2022-12-18T03:50:56;94700.59;;;5.14;100.00
10518;BME280;5307;42.548;22.968;2022-12-18T03:53:32;94698.66;;;5.15;100.00
10518;BME280;5307;42.548;22.968;2022-12-18T03:56:00;94702.56;;;5.06;100.00
10518;BME280;5307;42.548;22.968;2022-12-18T03:58:31;94702.97;;;5.09;100.00
10518;BME280;5307;42.548;22.968;2022-12-18T04:01:02;94713.41;;;4.99;100.00
10518;BME280;5307;42.548;22.968;2022-12-18T04:03:32;94707.97;;;5.10;100.00
10518;BME280;5307;42.548;22.968;2022-12-18T04:06:00;94714.56;;;4.98;100.00
10518;BME280;5307;42.548;22.968;2022-12-18T04:08:28;94721.91;;;5.01;100.00
10518;BME280;5307;42.548;22.968;2022-12-18T04:10:55;94736.59;;;5.11;100.00
10518;BME280;5307;42.548;22.968;2022-12-18T04:13:23;94734.28;;;4.99;100.00
10518;BME280;5307;42.548;22.968;2022-12-18T04:15:51;94737.41;;;4.97;100.00
10518;BME280;5307;42.548;22.968;2022-12-18T04:18:18;94742.06;;;4.68;100.00
10518;BME280;5307;42.548;22.968;2022-12-18T04:20:45;94741.66;;;4.70;100.00
10518;BME280;5307;42.548;22.968;2022-12-18T04:23:12;94740.50;;;4.82;100.00
10518;BME280;5307;42.548;22.968;2022-12-18T04:25:39;94749.00;;;4.98;100.00
10518;BME280;5307;42.548;22.968;2022-12-18T04:28:06;94751.34;;;4.67;100.00
10518;BME280;5307;42.548;22.968;2022-12-18T04:30:33;94752.47;;;4.91;100.00
10518;BME280;5307;42.548;22.968;2022-12-18T04:33:01;94753.25;;;4.77;100.00
10518;BME280;5307;42.548;22.968;2022-12-18T04:35:28;94760.22;;;4.71;100.00
10518;BME280;5307;42.548;22.968;2022-12-18T04:37:57;94761.38;;;4.70;100.00
10518;BME280;5307;42.548;22.968;2022-12-18T04:40:23;94760.59;;;4.91;100.00
10518;BME280;5307;42.548;22.968;2022-12-18T04:42:50;94754.41;;;4.62;100.00
10518;BME280;5307;42.548;22.968;2022-12-18T04:45:17;94767.94;;;4.94;100.00
10518;BME280;5307;42.548;22.968;2022-12-18T04:47:44;94767.91;;;5.23;100.00
10518;BME280;5307;42.548;22.968;2022-12-18T04:50:12;94761.69;;;5.26;100.00
10518;BME280;5307;42.548;22.968;2022-12-18T04:52:39;94764.72;;;5.46;100.00
10518;BME280;5307;42.548;22.968;2022-12-18T04:55:09;94772.84;;;5.53;100.00
10518;BME280;5307;42.548;22.968;2022-12-18T04:57:35;94782.16;;;5.41;100.00
10518;BME280;5307;42.548;22.968;2022-12-18T05:00:03;94789.09;;;5.56;100.00
10518;BME280;5307;42.548;22.968;2022-12-18T05:02:31;94797.66;;;5.41;100.00
10518;BME280;5307;42.548;22.968;2022-12-18T05:04:58;94788.34;;;5.42;100.00
10518;BME280;5307;42.548;22.968;2022-12-18T05:07:26;94799.56;;;5.44;100.00
10518;BME280;5307;42.548;22.968;2022-12-18T05:09:52;94801.56;;;5.22;100.00
10518;BME280;5307;42.548;22.968;2022-12-18T05:12:19;94803.09;;;5.23;100.00
10518;BME280;5307;42.548;22.968;2022-12-18T05:14:46;94818.56;;;5.19;100.00
10518;BME280;5307;42.548;22.968;2022-12-18T05:17:13;94808.53;;;5.12;100.00
10518;BME280;5307;42.548;22.968;2022-12-18T05:19:40;94813.94;;;5.16;100.00
10518;BME280;5307;42.548;22.968;2022-12-18T05:22:07;94819.34;;;5.05;100.00
10518;BME280;5307;42.548;22.968;2022-12-18T05:24:35;94824.00;;;4.97;100.00
10518;BME280;5307;42.548;22.968;2022-12-18T05:27:02;94815.09;;;4.90;100.00
10518;BME280;5307;42.548;22.968;2022-12-18T05:29:29;94822.06;;;4.98;100.00
10518;BME280;5307;42.548;22.968;2022-12-18T05:31:55;94828.66;;;4.93;100.00
10518;BME280;5307;42.548;22.968;2022-12-18T05:34:22;94839.47;;;4.97;100.00
10518;BME280;5307;42.548;22.968;2022-12-18T05:36:49;94831.72;;;5.02;100.00
10518;BME280;5307;42.548;22.968;2022-12-18T05:39:16;94834.84;;;5.08;100.00
10518;BME280;5307;42.548;22.968;2022-12-18T05:41:44;94844.88;;;5.18;100.00
10518;BME280;5307;42.548;22.968;2022-12-18T05:44:10;94849.53;;;4.86;100.00
10518;BME280;5307;42.548;22.968;2022-12-18T05:46:38;94847.97;;;4.99;100.00
10518;BME280;5307;42.548;22.968;2022-12-18T05:49:04;94854.94;;;4.93;100.00
10518;BME280;5307;42.548;22.968;2022-12-18T05:51:31;94851.44;;;4.92;100.00
10518;BME280;5307;42.548;22.968;2022-12-18T05:53:58;94859.97;;;5.05;100.00
10518;BME280;5307;42.548;22.968;2022-12-18T05:56:25;94858.03;;;4.84;100.00
10518;BME280;5307;42.548;22.968;2022-12-18T05:58:53;94864.94;;;4.60;100.00
10518;BME280;5307;42.548;22.968;2022-12-18T06:01:23;94871.91;;;4.61;100.00
10518;BME280;5307;42.548;22.968;2022-12-18T06:03:50;94875.38;;;4.51;100.00
10518;BME280;5307;42.548;22.968;2022-12-18T06:06:19;94883.47;;;4.44;100.00
10518;BME280;5307;42.548;22.968;2022-12-18T06:08:46;94890.09;;;4.75;100.00
10518;BME280;5307;42.548;22.968;2022-12-18T06:11:16;94897.78;;;4.55;100.00
10518;BME280;5307;42.548;22.968;2022-12-18T06:13:43;94886.53;;;4.39;100.00
10518;BME280;5307;42.548;22.968;2022-12-18T06:16:11;94894.28;;;4.47;100.00
10518;BME280;5307;42.548;22.968;2022-12-18T06:18:38;94895.03;;;4.41;100.00
10518;BME280;5307;42.548;22.968;2022-12-18T06:21:05;94888.09;;;4.40;100.00
10518;BME280;5307;42.548;22.968;2022-12-18T06:23:32;94889.63;;;4.48;100.00
10518;BME280;5307;42.548;22.968;2022-12-18T06:26:03;94895.03;;;4.41;100.00
10518;BME280;5307;42.548;22.968;2022-12-18T06:28:30;94892.34;;;4.41;100.00
10518;BME280;5307;42.548;22.968;2022-12-18T06:30:57;94895.72;;;4.16;100.00
10518;BME280;5307;42.548;22.968;2022-12-18T06:33:27;94903.84;;;4.16;100.00
10518;BME280;5307;42.548;22.968;2022-12-18T06:35:54;94915.09;;;4.33;100.00
10518;BME280;5307;42.548;22.968;2022-12-18T06:38:25;94912.34;;;4.22;100.00
10518;BME280;5307;42.548;22.968;2022-12-18T06:40:52;94913.88;;;4.12;100.00
10518;BME280;5307;42.548;22.968;2022-12-18T06:43:19;94917.41;;;4.24;100.00
10518;BME280;5307;42.548;22.968;2022-12-18T06:45:46;94912.00;;;4.34;100.00
10518;BME280;5307;42.548;22.968;2022-12-18T06:48:17;94908.84;;;4.14;100.00
10518;BME280;5307;42.548;22.968;2022-12-18T06:50:46;94918.94;;;4.32;100.00
10518;BME280;5307;42.548;22.968;2022-12-18T06:53:13;94918.16;;;4.24;100.00
10518;BME280;5307;42.548;22.968;2022-12-18T06:55:40;94929.00;;;4.35;100.00
10518;BME280;5307;42.548;22.968;2022-12-18T06:58:06;94929.91;;;4.67;100.00
10518;BME280;5307;42.548;22.968;2022-12-18T07:00:33;94935.94;;;4.29;100.00
10518;BME280;5307;42.548;22.968;2022-12-18T07:03:00;94936.72;;;4.26;100.00
10518;BME280;5307;42.548;22.968;2022-12-18T07:05:27;94932.88;;;4.34;100.00
10518;BME280;5307;42.548;22.968;2022-12-18T07:07:56;94946.44;;;4.44;100.00
10518;BME280;5307;42.548;22.968;2022-12-18T07:10:22;94945.25;;;4.38;100.00
10518;BME280;5307;42.548;22.968;2022-12-18T07:12:49;94954.16;;;4.42;100.00
10518;BME280;5307;42.548;22.968;2022-12-18T07:15:16;94954.16;;;4.42;100.00
10518;BME280;5307;42.548;22.968;2022-12-18T07:17:43;94953.81;;;4.51;100.00
10518;BME280;5307;42.548;22.968;2022-12-18T07:20:10;94954.16;;;4.39;100.00
10518;BME280;5307;42.548;22.968;2022-12-18T07:22:37;94963.53;;;4.73;100.00
10518;BME280;5307;42.548;22.968;2022-12-18T07:25:07;94956.97;;;4.67;100.00
10518;BME280;5307;42.548;22.968;2022-12-18T07:27:34;94969.38;;;4.83;100.00
10518;BME280;5307;42.548;22.968;2022-12-18T07:30:00;94965.03;;;4.64;100.00
10518;BME280;5307;42.548;22.968;2022-12-18T07:32:27;94959.22;;;4.51;100.00
10518;BME280;5307;42.548;22.968;2022-12-18T07:34:54;94964.28;;;4.63;100.00
10518;BME280;5307;42.548;22.968;2022-12-18T07:37:21;94967.78;;;4.74;100.00
10518;BME280;5307;42.548;22.968;2022-12-18T07:39:48;94972.38;;;4.56;100.00
10518;BME280;5307;42.548;22.968;2022-12-18T07:42:16;94959.56;;;4.39;100.00
10518;BME280;5307;42.548;22.968;2022-12-18T07:44:58;94966.97;;;4.60;100.00
10518;BME280;5307;42.548;22.968;2022-12-18T07:47:25;94964.69;;;4.72;100.00
10518;BME280;5307;42.548;22.968;2022-12-18T07:49:53;94971.28;;;4.75;100.00
10518;BME280;5307;42.548;22.968;2022-12-18T07:52:19;94972.47;;;4.92;100.00
10518;BME280;5307;42.548;22.968;2022-12-18T07:54:46;94977.53;;;5.04;100.00
10518;BME280;5307;42.548;22.968;2022-12-18T07:57:16;94979.44;;;4.89;99.71
10518;BME280;5307;42.548;22.968;2022-12-18T07:59:43;94984.09;;;4.96;99.18
10518;BME280;5307;42.548;22.968;2022-12-18T08:02:09;94986.78;;;4.85;98.69
10518;BME280;5307;42.548;22.968;2022-12-18T08:04:36;94987.88;;;4.66;99.01
10518;BME280;5307;42.548;22.968;2022-12-18T08:07:03;94994.13;;;4.81;98.54
10518;BME280;5307;42.548;22.968;2022-12-18T08:09:30;95011.06;;;4.67;97.43
10518;BME280;5307;42.548;22.968;2022-12-18T08:11:57;95007.56;;;4.63;97.37
10518;BME280;5307;42.548;22.968;2022-12-18T08:14:25;95009.09;;;4.61;99.14
10518;BME280;5307;42.548;22.968;2022-12-18T08:16:51;95008.03;;;4.87;98.90
10518;BME280;5307;42.548;22.968;2022-12-18T08:19:18;95021.38;;;4.44;99.41
10518;BME280;5307;42.548;22.968;2022-12-18T08:21:45;95023.44;;;4.68;99.63
10518;BME280;5307;42.548;22.968;2022-12-18T08:24:12;95030.84;;;4.79;100.00
10518;BME280;5307;42.548;22.968;2022-12-18T08:26:38;95032.72;;;4.67;100.00
10518;BME280;5307;42.548;22.968;2022-12-18T08:29:05;95028.97;;;5.00;98.92
10518;BME280;5307;42.548;22.968;2022-12-18T08:31:33;95026.56;;;4.77;98.57
10518;BME280;5307;42.548;22.968;2022-12-18T08:34:00;95028.84;;;4.72;99.09
10518;BME280;5307;42.548;22.968;2022-12-18T08:36:27;95031.19;;;4.73;99.98
10518;BME280;5307;42.548;22.968;2022-12-18T08:38:54;95034.97;;;4.58;99.52
10518;BME280;5307;42.548;22.968;2022-12-18T08:41:21;95031.16;;;4.66;99.17
10518;BME280;5307;42.548;22.968;2022-12-18T08:43:48;95025.81;;;4.88;98.69
10518;BME280;5307;42.548;22.968;2022-12-18T08:46:36;95022.63;;;4.57;98.85
10518;BME280;5307;42.548;22.968;2022-12-18T08:49:04;95026.97;;;4.80;99.09
10518;BME280;5307;42.548;22.968;2022-12-18T08:51:31;95034.81;;;5.10;97.87
10518;BME280;5307;42.548;22.968;2022-12-18T08:53:58;95027.38;;;4.89;97.05
10518;BME280;5307;42.548;22.968;2022-12-18T08:56:24;95035.50;;;4.89;96.37
10518;BME280;5307;42.548;22.968;2022-12-18T08:58:53;95020.34;;;4.66;95.90
10518;BME280;5307;42.548;22.968;2022-12-18T09:01:20;95033.09;;;4.66;94.82
10518;BME280;5307;42.548;22.968;2022-12-18T09:03:49;95032.78;;;4.85;94.48
10518;BME280;5307;42.548;22.968;2022-12-18T09:06:18;95025.72;;;4.59;93.80
10518;BME280;5307;42.548;22.968;2022-12-18T09:08:45;95021.91;;;4.67;93.39
10518;BME280;5307;42.548;22.968;2022-12-18T09:11:14;95033.22;;;4.94;94.26
10518;BME280;5307;42.548;22.968;2022-12-18T09:13:43;95038.69;;;5.19;93.18
10518;BME280;5307;42.548;22.968;2022-12-18T09:16:10;95029.00;;;5.18;91.58
10518;BME280;5307;42.548;22.968;2022-12-18T09:18:37;95038.72;;;5.41;91.77
10518;BME280;5307;42.548;22.968;2022-12-18T09:21:13;95032.91;;;5.24;92.43
10518;BME280;5307;42.548;22.968;2022-12-18T09:23:42;95038.19;;;4.85;92.31
10518;BME280;5307;42.548;22.968;2022-12-18T09:26:09;95034.31;;;4.79;92.37
10518;BME280;5307;42.548;22.968;2022-12-18T09:28:36;95026.63;;;4.95;93.01
10518;BME280;5307;42.548;22.968;2022-12-18T09:31:07;95038.31;;;5.24;93.26
10518;BME280;5307;42.548;22.968;2022-12-18T09:33:34;95039.09;;;5.32;92.35
10518;BME280;5307;42.548;22.968;2022-12-18T09:36:02;95034.44;;;5.25;91.04
10518;BME280;5307;42.548;22.968;2022-12-18T09:38:31;95032.16;;;5.49;91.43
10518;BME280;5307;42.548;22.968;2022-12-18T09:41:00;95032.06;;;5.06;90.74
10518;BME280;5307;42.548;22.968;2022-12-18T09:43:35;95031.31;;;5.09;90.57
10518;BME280;5307;42.548;22.968;2022-12-18T09:46:06;95026.25;;;4.97;90.99
10518;BME280;5307;42.548;22.968;2022-12-18T09:48:36;95021.63;;;5.04;90.33
10518;BME280;5307;42.548;22.968;2022-12-18T09:51:11;95006.56;;;5.07;91.06
10518;BME280;5307;42.548;22.968;2022-12-18T09:53:44;95019.00;;;5.44;90.27
10518;BME280;5307;42.548;22.968;2022-12-18T09:56:16;95010.88;;;5.58;89.64
10518;BME280;5307;42.548;22.968;2022-12-18T09:58:48;95003.84;;;5.18;88.75
10518;BME280;5307;42.548;22.968;2022-12-18T10:01:21;95009.72;;;5.38;88.74
10518;BME280;5307;42.548;22.968;2022-12-18T10:03:48;95010.06;;;5.18;87.87
10518;BME280;5307;42.548;22.968;2022-12-18T10:06:20;95008.56;;;5.53;88.47
10518;BME280;5307;42.548;22.968;2022-12-18T10:08:54;95005.84;;;5.35;87.83
10518;BME280;5307;42.548;22.968;2022-12-18T10:11:32;95008.97;;;5.80;88.89
10518;BME280;5307;42.548;22.968;2022-12-18T10:14:08;95007.75;;;5.34;87.29
10518;BME280;5307;42.548;22.968;2022-12-18T10:16:40;95008.94;;;5.69;87.84
10518;BME280;5307;42.548;22.968;2022-12-18T10:19:23;95008.94;;;5.48;87.67
10518;BME280;5307;42.548;22.968;2022-12-18T10:21:58;95005.09;;;5.70;87.66
10518;BME280;5307;42.548;22.968;2022-12-18T10:24:33;95007.78;;;5.74;88.60
10518;BME280;5307;42.548;22.968;2022-12-18T10:27:12;94998.88;;;5.91;88.52
10518;BME280;5307;42.548;22.968;2022-12-18T10:29:42;95001.97;;;5.75;87.25
10518;BME280;5307;42.548;22.968;2022-12-18T10:32:13;94994.28;;;5.91;86.52
10518;BME280;5307;42.548;22.968;2022-12-18T10:34:40;94996.56;;;5.82;85.24
10518;BME280;5307;42.548;22.968;2022-12-18T10:37:11;94992.69;;;5.80;85.67
10518;BME280;5307;42.548;22.968;2022-12-18T10:39:43;94991.53;;;5.56;85.38
10518;BME280;5307;42.548;22.968;2022-12-18T10:42:11;94987.28;;;5.69;85.02
10518;BME280;5307;42.548;22.968;2022-12-18T10:44:42;94987.28;;;5.55;84.83
10518;BME280;5307;42.548;22.968;2022-12-18T10:47:12;94984.19;;;5.63;85.91
10518;BME280;5307;42.548;22.968;2022-12-18T10:49:46;94993.47;;;5.84;87.13
10518;BME280;5307;42.548;22.968;2022-12-18T10:52:16;94992.69;;;5.58;88.10
10518;BME280;5307;42.548;22.968;2022-12-18T10:54:49;94998.09;;;5.76;86.28
10518;BME280;5307;42.548;22.968;2022-12-18T10:57:29;95000.06;;;5.65;85.74
10518;BME280;5307;42.548;22.968;2022-12-18T10:59:58;94998.88;;;5.45;85.67
10518;BME280;5307;42.548;22.968;2022-12-18T11:02:28;95003.50;;;5.30;85.85
10518;BME280;5307;42.548;22.968;2022-12-18T11:04:55;94999.22;;;5.15;86.06
10518;BME280;5307;42.548;22.968;2022-12-18T11:07:22;95001.56;;;5.30;86.20
10518;BME280;5307;42.548;22.968;2022-12-18T11:10:00;95003.13;;;5.56;85.90
10518;BME280;5307;42.548;22.968;2022-12-18T11:12:28;95008.88;;;5.12;85.54
10518;BME280;5307;42.548;22.968;2022-12-18T11:14:57;95001.56;;;5.23;86.12
10518;BME280;5307;42.548;22.968;2022-12-18T11:17:29;95005.09;;;5.52;86.71
10518;BME280;5307;42.548;22.968;2022-12-18T11:19:57;95014.34;;;5.33;87.30
10518;BME280;5307;42.548;22.968;2022-12-18T11:22:25;95016.97;;;4.98;88.28
10518;BME280;5307;42.548;22.968;2022-12-18T11:24:56;95013.84;;;4.92;88.39
10518;BME280;5307;42.548;22.968;2022-12-18T11:27:26;95021.22;;;5.06;89.46
10518;BME280;5307;42.548;22.968;2022-12-18T11:30:08;95019.69;;;4.94;89.22
10518;BME280;5307;42.548;22.968;2022-12-18T11:32:37;95016.63;;;5.17;88.10
10518;BME280;5307;42.548;22.968;2022-12-18T11:35:14;95025.47;;;4.93;86.96
10518;BME280;5307;42.548;22.968;2022-12-18T11:37:44;95025.91;;;5.09;86.67
10518;BME280;5307;42.548;22.968;2022-12-18T11:40:17;95035.53;;;4.96;85.95
10518;BME280;5307;42.548;22.968;2022-12-18T11:42:51;95029.66;;;4.76;85.23
10518;BME280;5307;42.548;22.968;2022-12-18T11:45:27;95026.22;;;4.90;85.40
10518;BME280;5307;42.548;22.968;2022-12-18T11:47:58;95038.22;;;4.92;85.57
10518;BME280;5307;42.548;22.968;2022-12-18T11:50:33;95031.72;;;5.11;84.22
10518;BME280;5307;42.548;22.968;2022-12-18T11:53:01;95027.81;;;5.05;83.28
10518;BME280;5307;42.548;22.968;2022-12-18T11:55:35;95012.03;;;5.35;84.14
10518;BME280;5307;42.548;22.968;2022-12-18T11:58:12;95026.69;;;5.10;82.08
10518;BME280;5307;42.548;22.968;2022-12-18T12:00:47;95019.78;;;5.41;81.75
10518;BME280;5307;42.548;22.968;2022-12-18T12:03:27;95019.00;;;5.47;81.34
10518;BME280;5307;42.548;22.968;2022-12-18T12:06:10;95023.63;;;5.47;80.31
10518;BME280;5307;42.548;22.968;2022-12-18T12:08:52;95021.28;;;5.27;79.92
10518;BME280;5307;42.548;22.968;2022-12-18T12:11:26;95024.03;;;5.63;80.90
10518;BME280;5307;42.548;22.968;2022-12-18T12:14:09;95019.03;;;5.51;79.42
10518;BME280;5307;42.548;22.968;2022-12-18T12:16:46;95021.25;;;5.17;78.05
10518;BME280;5307;42.548;22.968;2022-12-18T12:19:30;95019.78;;;5.51;78.40
10518;BME280;5307;42.548;22.968;2022-12-18T12:22:05;95019.78;;;5.58;78.29
10518;BME280;5307;42.548;22.968;2022-12-18T12:24:44;95029.09;;;5.82;77.44
10518;BME280;5307;42.548;22.968;2022-12-18T12:27:20;95018.63;;;5.70;77.07
10518;BME280;5307;42.548;22.968;2022-12-18T12:30:02;95025.19;;;5.62;76.79
10518;BME280;5307;42.548;22.968;2022-12-18T12:32:40;95015.50;;;5.32;76.90
10518;BME280;5307;42.548;22.968;2022-12-18T12:35:21;95024.41;;;5.40;76.99
10518;BME280;5307;42.548;22.968;2022-12-18T12:37:58;95029.44;;;5.49;77.31
10518;BME280;5307;42.548;22.968;2022-12-18T12:40:32;95031.38;;;5.62;75.91
10518;BME280;5307;42.548;22.968;2022-12-18T12:43:03;95024.44;;;5.72;76.52
10518;BME280;5307;42.548;22.968;2022-12-18T12:45:45;95017.47;;;5.71;76.22
10518;BME280;5307;42.548;22.968;2022-12-18T12:48:18;95035.66;;;5.74;76.02
10518;BME280;5307;42.548;22.968;2022-12-18T12:50:49;95027.53;;;5.53;75.70
10518;BME280;5307;42.548;22.968;2022-12-18T12:53:23;95034.09;;;5.38;76.06
10518;BME280;5307;42.548;22.968;2022-12-18T12:55:52;95039.84;;;5.15;76.01
10518;BME280;5307;42.548;22.968;2022-12-18T12:58:26;95040.69;;;5.51;76.27
10518;BME280;5307;42.548;22.968;2022-12-18T13:01:04;95042.63;;;5.61;75.82
10518;BME280;5307;42.548;22.968;2022-12-18T13:03:42;95053.41;;;5.29;75.77
10518;BME280;5307;42.548;22.968;2022-12-18T13:06:16;95064.63;;;5.34;75.85
10518;BME280;5307;42.548;22.968;2022-12-18T13:08:57;95052.22;;;5.12;75.29
10518;BME280;5307;42.548;22.968;2022-12-18T13:11:38;95067.75;;;5.44;75.69
10518;BME280;5307;42.548;22.968;2022-12-18T13:14:25;95063.78;;;5.02;75.12
10518;BME280;5307;42.548;22.968;2022-12-18T13:17:22;95061.41;;;4.86;75.83
10518;BME280;5307;42.548;22.968;2022-12-18T13:19:51;95076.91;;;4.96;76.01